Time;durP1;ratioP1;P1;durP2;ratioP2;P2;SDS_P1;SDS_P2;PMS_P1;PMS_P2;Temp;Humidity;BMP_temperature;BMP_pressure;BME280_temperature;BME280_humidity;BME280_pressure;Samples;Min_cycle;Max_cycle;Signal;HPM_P1;HPM_P2
2022/04/01 00:00:45;;;;;;;3.43;2.17;;;1.80;99.90;;;;;;5094612;28;20694;-69
2022/04/01 00:03:12;;;;;;;4.03;2.30;;;1.70;1.00;;;;;;5095005;28;20648;-69
2022/04/01 00:05:40;;;;;;;4.83;2.03;;;1.60;1.00;;;;;;5094536;28;20267;-69
2022/04/01 00:08:09;;;;;;;8.93;2.83;;;1.50;1.00;;;;;;5093326;28;20201;-69
2022/04/01 00:10:36;;;;;;;5.53;3.33;;;1.40;17.40;;;;;;5094539;28;20198;-68
2022/04/01 00:13:03;;;;;;;5.00;1.90;;;1.40;99.90;;;;;;5094724;28;20201;-69
2022/04/01 00:15:30;;;;;;;4.80;2.73;;;1.30;99.90;;;;;;5094333;28;20209;-68
2022/04/01 00:17:58;;;;;;;3.93;2.60;;;1.30;99.90;;;;;;5094520;28;20280;-68
2022/04/01 00:20:25;;;;;;;7.37;3.40;;;1.30;99.90;;;;;;5094573;28;20217;-69
2022/04/01 00:22:53;;;;;;;5.00;2.60;;;1.30;99.90;;;;;;5093669;28;20197;-69
2022/04/01 00:25:22;;;;;;;5.47;2.67;;;1.20;99.90;;;;;;5092770;28;20209;-69
2022/04/01 00:27:50;;;;;;;4.27;2.47;;;1.20;99.90;;;;;;5093459;28;20209;-69
2022/04/01 00:30:18;;;;;;;3.87;2.80;;;1.20;99.90;;;;;;5094871;28;20288;-69
2022/04/01 00:32:45;;;;;;;5.07;3.03;;;1.20;99.90;;;;;;5094541;28;20572;-69
2022/04/01 00:35:11;;;;;;;7.90;3.53;;;1.20;99.90;;;;;;5093477;28;20206;-68
2022/04/01 00:37:40;;;;;;;4.73;2.43;;;1.20;99.90;;;;;;5094735;28;20560;-69
2022/04/01 00:40:09;;;;;;;3.63;2.63;;;1.20;99.90;;;;;;5093344;28;20205;-69
2022/04/01 00:42:38;;;;;;;5.13;2.33;;;1.10;99.90;;;;;;5094142;28;20208;-68
2022/04/01 00:45:06;;;;;;;4.07;2.60;;;1.10;99.90;;;;;;5094633;28;20206;-68
2022/04/01 00:47:32;;;;;;;7.93;3.20;;;1.10;99.90;;;;;;5093992;28;20202;-69
2022/04/01 00:49:59;;;;;;;4.97;3.43;;;1.10;99.90;;;;;;5093270;28;20213;-68
2022/04/01 00:52:26;;;;;;;6.33;2.57;;;1.10;99.90;;;;;;5092657;28;20284;-69
2022/04/01 00:54:53;;;;;;;5.23;2.90;;;1.00;99.90;;;;;;5094136;28;20713;-68
2022/04/01 00:57:21;;;;;;;6.67;2.90;;;1.00;99.90;;;;;;5093992;28;20288;-68
2022/04/01 00:59:50;;;;;;;6.40;4.13;;;1.00;99.90;;;;;;5093834;28;20197;-69
2022/04/01 01:02:17;;;;;;;6.40;3.17;;;1.00;99.90;;;;;;5092605;28;20194;-69
2022/04/01 01:04:44;;;;;;;6.73;3.47;;;1.00;99.90;;;;;;5092685;28;20338;-68
2022/04/01 01:07:12;;;;;;;8.60;4.40;;;1.00;99.90;;;;;;5092592;28;20207;-69
2022/04/01 01:09:39;;;;;;;6.37;3.03;;;1.00;99.90;;;;;;5093420;28;20226;-69
2022/04/01 01:12:07;;;;;;;5.43;3.37;;;0.90;99.90;;;;;;5092610;28;20204;-69
2022/04/01 01:14:36;;;;;;;6.27;3.23;;;0.90;99.90;;;;;;5092626;28;20206;-69
2022/04/01 01:17:07;;;;;;;9.37;4.33;;;0.90;99.90;;;;;;5093054;28;20305;-69
2022/04/01 01:19:34;;;;;;;4.00;2.60;;;0.90;99.90;;;;;;5093167;28;20667;-69
2022/04/01 01:22:01;;;;;;;9.73;3.67;;;0.90;99.90;;;;;;5091919;28;20296;-68
2022/04/01 01:24:31;;;;;;;8.10;3.70;;;0.80;99.90;;;;;;5092877;28;20228;-69
2022/04/01 01:26:59;;;;;;;8.00;4.33;;;0.80;99.90;;;;;;5093387;28;20202;-69
2022/04/01 01:29:27;;;;;;;9.90;4.43;;;0.80;99.90;;;;;;5092342;28;20201;-69
2022/04/01 01:31:55;;;;;;;6.43;4.27;;;0.70;99.90;;;;;;5093201;28;20567;-69
2022/04/01 01:34:23;;;;;;;10.87;4.87;;;0.70;99.90;;;;;;5092402;28;20233;-69
2022/04/01 01:36:50;;;;;;;7.17;4.37;;;0.70;99.90;;;;;;5091940;28;20202;-69
2022/04/01 01:39:18;;;;;;;9.93;4.40;;;0.70;99.90;;;;;;5091772;28;20676;-68
2022/04/01 01:41:47;;;;;;;6.97;4.03;;;0.70;99.90;;;;;;5092537;28;20660;-68
2022/04/01 01:44:15;;;;;;;7.93;4.67;;;0.60;99.90;;;;;;5091929;28;20202;-70
2022/04/01 01:46:42;;;;;;;9.47;4.80;;;0.60;99.90;;;;;;5093065;28;20599;-70
2022/04/01 01:49:09;;;;;;;10.50;5.17;;;0.60;99.90;;;;;;5092770;28;20205;-70
2022/04/01 01:57:06;;;;;;;7.60;4.33;;;0.60;99.90;;;;;;5084448;28;20207;-70
2022/04/01 01:59:33;;;;;;;7.67;4.23;;;0.60;99.90;;;;;;5091931;28;20378;-70
2022/04/01 02:02:03;;;;;;;10.33;4.97;;;0.50;99.90;;;;;;5092285;28;20202;-70
2022/04/01 02:04:30;;;;;;;8.00;4.67;;;0.60;99.90;;;;;;5092355;28;20225;-70
2022/04/01 02:06:57;;;;;;;8.80;4.47;;;0.60;99.90;;;;;;5092031;28;20639;-70
2022/04/01 02:09:24;;;;;;;10.77;5.70;;;0.50;99.90;;;;;;5092027;28;20205;-70
2022/04/01 02:11:52;;;;;;;7.63;4.73;;;0.50;99.90;;;;;;5091657;28;20212;-70
2022/04/01 02:14:21;;;;;;;14.43;6.63;;;0.50;99.90;;;;;;5091901;28;20204;-70
2022/04/01 02:16:48;;;;;;;7.83;4.77;;;0.50;99.90;;;;;;5092204;28;20197;-70
2022/04/01 02:19:20;;;;;;;7.97;4.90;;;0.50;99.90;;;;;;5092002;28;20652;-70
2022/04/01 02:21:48;;;;;;;11.50;5.93;;;0.50;99.90;;;;;;5090665;28;20201;-70
2022/04/01 02:24:17;;;;;;;8.67;4.87;;;0.50;99.90;;;;;;5089183;28;20533;-70
2022/04/01 02:26:45;;;;;;;10.57;5.50;;;0.50;99.90;;;;;;5092433;28;20346;-70
2022/04/01 02:29:12;;;;;;;10.53;5.93;;;0.40;99.90;;;;;;5091361;28;20261;-70
2022/04/01 02:31:40;;;;;;;7.43;4.97;;;0.40;99.90;;;;;;5091984;28;20225;-70
2022/04/01 02:34:08;;;;;;;18.97;6.50;;;0.40;99.90;;;;;;5091090;28;20208;-69
2022/04/01 02:36:35;;;;;;;10.73;5.40;;;0.40;99.90;;;;;;5088440;28;20445;-70
2022/04/01 02:39:01;;;;;;;10.83;4.90;;;0.40;99.90;;;;;;5091364;28;20197;-70
2022/04/01 02:41:30;;;;;;;8.80;4.97;;;0.40;99.90;;;;;;5091991;28;20197;-70
2022/04/01 02:44:08;;;;;;;9.10;4.80;;;0.40;99.90;;;;;;5091192;28;20227;-70
2022/04/01 02:46:35;;;;;;;9.27;5.90;;;0.40;99.90;;;;;;5091522;28;20213;-70
2022/04/01 02:49:06;;;;;;;11.70;6.27;;;0.40;99.90;;;;;;5090914;28;20198;-70
2022/04/01 02:51:36;;;;;;;15.07;5.30;;;0.40;99.90;;;;;;5091891;28;20674;-70
2022/04/01 02:54:04;;;;;;;11.73;5.53;;;0.40;99.90;;;;;;5090784;28;20708;-69
2022/04/01 02:56:32;;;;;;;6.73;4.53;;;0.40;99.90;;;;;;5091253;28;20209;-69
2022/04/01 02:58:59;;;;;;;15.70;6.33;;;0.40;99.90;;;;;;5090821;28;20193;-69
2022/04/01 03:01:26;;;;;;;10.47;5.30;;;0.40;99.90;;;;;;5091532;28;20208;-68
2022/04/01 03:03:53;;;;;;;12.40;6.03;;;0.40;99.90;;;;;;5092302;28;20285;-68
2022/04/01 03:06:21;;;;;;;8.83;5.40;;;0.30;99.90;;;;;;5091276;28;20682;-69
2022/04/01 03:08:49;;;;;;;11.50;6.23;;;0.40;99.90;;;;;;5091627;28;20433;-68
2022/04/01 03:11:16;;;;;;;9.97;5.00;;;0.40;99.90;;;;;;5091552;28;20326;-69
2022/04/01 03:13:43;;;;;;;7.17;4.60;;;0.30;99.90;;;;;;5091323;28;20660;-69
2022/04/01 03:16:12;;;;;;;11.00;6.23;;;0.40;99.90;;;;;;5091525;28;20250;-69
2022/04/01 03:18:40;;;;;;;11.53;5.50;;;0.30;99.90;;;;;;5091568;28;20197;-69
2022/04/01 03:21:08;;;;;;;8.90;4.80;;;0.30;99.90;;;;;;5078826;28;20705;-69
2022/04/01 03:23:38;;;;;;;12.37;6.13;;;0.30;99.90;;;;;;5091493;28;20209;-69
2022/04/01 03:26:05;;;;;;;10.53;5.03;;;0.30;99.90;;;;;;5090830;28;20205;-69
2022/04/01 03:28:33;;;;;;;14.80;5.93;;;0.30;99.90;;;;;;5090960;28;20198;-69
2022/04/01 03:31:00;;;;;;;9.17;6.07;;;0.30;99.90;;;;;;5091708;28;20310;-69
2022/04/01 03:33:27;;;;;;;7.80;4.93;;;0.30;99.90;;;;;;5091380;28;20208;-69
2022/04/01 03:35:53;;;;;;;9.90;5.47;;;0.20;99.90;;;;;;5091425;28;20216;-69
2022/04/01 03:38:20;;;;;;;12.17;5.40;;;0.10;99.90;;;;;;5091419;28;20648;-69
2022/04/01 03:40:51;;;;;;;9.17;5.43;;;0.10;99.90;;;;;;5091685;28;20213;-69
2022/04/01 03:43:21;;;;;;;10.03;6.00;;;0.00;99.90;;;;;;5091382;28;20215;-69
2022/04/01 03:45:49;;;;;;;12.43;5.80;;;0.00;99.90;;;;;;5091423;28;20198;-69
2022/04/01 03:48:25;;;;;;;11.87;6.43;;;0.00;99.90;;;;;;5091144;28;20202;-69
2022/04/01 03:50:56;;;;;;;11.10;6.00;;;0.00;99.90;;;;;;5091291;28;20221;-69
2022/04/01 03:53:26;;;;;;;13.17;7.30;;;0.00;99.90;;;;;;5091671;28;20236;-68
2022/04/01 03:55:55;;;;;;;12.63;7.33;;;0.00;99.90;;;;;;5091175;28;20209;-70
2022/04/01 03:58:28;;;;;;;11.63;5.93;;;0.00;99.90;;;;;;5090384;28;20201;-68
2022/04/01 04:00:55;;;;;;;12.43;5.70;;;0.00;99.90;;;;;;5094042;28;20552;-69
2022/04/01 04:03:23;;;;;;;11.37;5.03;;;0.00;99.90;;;;;;5095325;28;20202;-69
2022/04/01 04:05:51;;;;;;;12.10;6.23;;;-0.10;99.90;;;;;;5094638;28;20581;-69
2022/04/01 04:08:20;;;;;;;12.63;6.80;;;0.00;99.90;;;;;;5095038;28;20627;-68
2022/04/01 04:10:48;;;;;;;14.27;6.07;;;0.00;99.90;;;;;;5094819;28;20225;-69
2022/04/01 04:13:16;;;;;;;12.90;6.83;;;0.00;99.90;;;;;;5095360;28;20204;-69
2022/04/01 04:15:50;;;;;;;13.90;6.63;;;-0.10;99.90;;;;;;5094848;28;20202;-69
2022/04/01 04:18:19;;;;;;;11.40;5.97;;;-0.10;99.90;;;;;;5093809;28;20212;-69
2022/04/01 04:20:59;;;;;;;11.07;5.93;;;-0.10;99.90;;;;;;5094625;28;20205;-69
2022/04/01 04:23:35;;;;;;;11.03;6.37;;;-0.10;99.90;;;;;;5094456;28;20206;-69
2022/04/01 04:26:11;;;;;;;17.23;7.33;;;-0.20;99.90;;;;;;5095620;28;20197;-70
2022/04/01 04:28:42;;;;;;;11.10;5.47;;;-0.10;99.90;;;;;;5093339;28;20205;-70
2022/04/01 04:31:11;;;;;;;15.07;7.23;;;-0.10;99.90;;;;;;5094853;28;20225;-69
2022/04/01 04:33:44;;;;;;;12.07;6.47;;;-0.20;99.90;;;;;;5095136;28;20197;-69
2022/04/01 04:36:11;;;;;;;14.57;7.80;;;-0.20;99.90;;;;;;5094138;28;20206;-70
2022/04/01 04:38:40;;;;;;;12.77;6.63;;;-0.20;99.90;;;;;;5094146;28;20216;-69
2022/04/01 04:41:09;;;;;;;14.00;8.03;;;-0.20;99.90;;;;;;5093676;28;20208;-69
2022/04/01 04:43:39;;;;;;;14.27;7.63;;;-0.20;99.90;;;;;;5094742;28;20670;-69
2022/04/01 04:46:07;;;;;;;14.83;8.77;;;-0.10;99.90;;;;;;5094771;28;20208;-69
2022/04/01 04:48:34;;;;;;;17.47;8.60;;;-0.20;99.90;;;;;;5094085;28;20205;-69
2022/04/01 04:51:03;;;;;;;18.00;7.90;;;-0.20;99.90;;;;;;5093555;28;20594;-69
2022/04/01 04:53:34;;;;;;;16.57;8.23;;;-0.20;99.90;;;;;;5093085;28;20212;-69
2022/04/01 04:56:02;;;;;;;15.43;8.27;;;-0.20;99.90;;;;;;5094610;28;20213;-70
2022/04/01 04:58:32;;;;;;;14.07;6.50;;;-0.20;99.90;;;;;;5094142;28;20229;-71
2022/04/01 05:01:08;;;;;;;12.50;7.23;;;-0.20;99.90;;;;;;5093513;28;20201;-69
2022/04/01 05:03:59;;;;;;;14.17;7.00;;;-0.10;99.90;;;;;;5093130;28;20208;-69
2022/04/01 05:06:30;;;;;;;14.90;7.07;;;-0.20;99.90;;;;;;5092948;28;20208;-69
2022/04/01 05:09:05;;;;;;;14.10;7.13;;;-0.10;99.90;;;;;;5093661;28;20215;-70
2022/04/01 05:11:45;;;;;;;14.97;6.93;;;-0.10;99.90;;;;;;5090394;28;20225;-70
2022/04/01 05:14:29;;;;;;;12.50;7.40;;;-0.10;99.90;;;;;;5092995;28;20208;-70
2022/04/01 05:17:02;;;;;;;15.47;7.87;;;-0.10;99.90;;;;;;5092653;28;20641;-69
2022/04/01 05:19:31;;;;;;;11.87;5.60;;;0.00;99.90;;;;;;5092284;28;20469;-70
2022/04/01 05:22:01;;;;;;;14.33;7.33;;;-0.10;99.90;;;;;;5093126;28;20198;-70
2022/04/01 05:24:38;;;;;;;15.77;7.43;;;0.00;99.90;;;;;;5090195;28;20600;-70
2022/04/01 05:27:07;;;;;;;14.20;6.70;;;-0.10;99.90;;;;;;5074671;28;20200;-70
2022/04/01 05:29:42;;;;;;;13.20;6.57;;;-0.10;99.90;;;;;;5092631;28;20231;-70
2022/04/01 05:32:11;;;;;;;11.53;6.67;;;-0.10;99.90;;;;;;5092760;28;20232;-69
2022/04/01 05:34:41;;;;;;;11.73;6.07;;;-0.10;99.90;;;;;;5092674;28;20297;-70
2022/04/01 05:37:09;;;;;;;11.97;6.07;;;-0.10;99.90;;;;;;5089261;28;20556;-70
2022/04/01 05:39:38;;;;;;;10.90;6.07;;;-0.10;99.90;;;;;;5092180;28;20723;-70
2022/04/01 05:42:07;;;;;;;11.03;5.97;;;-0.20;99.90;;;;;;5092213;28;20194;-70
2022/04/01 05:44:34;;;;;;;10.73;5.53;;;-0.20;99.90;;;;;;5089860;28;20209;-69
2022/04/01 05:47:02;;;;;;;12.03;6.13;;;-0.20;99.90;;;;;;5092746;28;20554;-70
2022/04/01 05:49:30;;;;;;;10.33;4.77;;;-0.20;99.90;;;;;;5092071;28;20268;-70
2022/04/01 05:51:58;;;;;;;11.60;5.63;;;-0.30;99.90;;;;;;5092081;28;20228;-70
2022/04/01 05:54:27;;;;;;;12.37;5.37;;;-0.30;99.90;;;;;;5092925;28;20721;-70
2022/04/01 05:56:55;;;;;;;10.60;4.70;;;-0.30;99.90;;;;;;5089227;28;20202;-71
2022/04/01 05:59:23;;;;;;;10.60;5.20;;;-0.30;99.90;;;;;;5091989;28;20205;-71
2022/04/01 06:01:57;;;;;;;11.47;4.77;;;-0.30;99.90;;;;;;5092167;28;20204;-71
2022/04/01 06:05:07;;;;;;;12.97;5.27;;;-0.30;99.90;;;;;;5091899;28;20557;-71
2022/04/01 06:07:39;;;;;;;12.43;5.70;;;-0.40;99.90;;;;;;5089715;28;20205;-71
2022/04/01 06:10:09;;;;;;;10.10;4.70;;;-0.40;99.90;;;;;;5091605;28;20202;-71
2022/04/01 06:12:46;;;;;;;11.00;4.40;;;-0.30;99.90;;;;;;5091795;28;20327;-71
2022/04/01 06:15:20;;;;;;;12.33;5.53;;;-0.40;99.90;;;;;;5092630;28;20258;-71
2022/04/01 06:18:00;;;;;;;9.37;4.50;;;-0.40;99.90;;;;;;5091149;28;20209;-71
2022/04/01 06:20:30;;;;;;;12.50;6.90;;;-0.40;99.90;;;;;;5088839;28;20201;-71
2022/04/01 06:23:04;;;;;;;10.43;4.97;;;-0.40;99.90;;;;;;5087112;28;20209;-71
2022/04/01 06:25:34;;;;;;;8.63;4.67;;;-0.40;99.90;;;;;;5091561;28;20205;-71
2022/04/01 06:28:14;;;;;;;11.33;4.87;;;-0.40;99.90;;;;;;5091246;28;20221;-72
2022/04/01 06:30:43;;;;;;;8.37;3.70;;;-0.30;99.90;;;;;;5092239;28;20564;-72
2022/04/01 06:33:22;;;;;;;10.47;5.03;;;-0.30;99.90;;;;;;5093443;28;20213;-69
2022/04/01 06:35:57;;;;;;;6.30;4.07;;;-0.30;99.90;;;;;;5090863;28;20205;-69
2022/04/01 06:38:34;;;;;;;9.33;5.43;;;-0.30;99.90;;;;;;5091581;28;20544;-69
2022/04/01 06:41:05;;;;;;;8.97;4.77;;;-0.30;99.90;;;;;;5090984;28;20560;-69
2022/04/01 06:43:32;;;;;;;9.37;4.50;;;-0.30;99.90;;;;;;5091642;28;20203;-69
2022/04/01 06:45:59;;;;;;;11.40;5.50;;;-0.30;99.90;;;;;;5091958;28;20202;-69
2022/04/01 06:48:25;;;;;;;6.97;4.00;;;-0.30;99.90;;;;;;5091014;28;20206;-69
2022/04/01 06:50:54;;;;;;;12.90;5.23;;;-0.30;99.90;;;;;;5091816;28;20224;-69
2022/04/01 06:53:21;;;;;;;8.53;4.80;;;-0.30;99.90;;;;;;5091593;28;20197;-69
2022/04/01 06:55:49;;;;;;;12.63;5.90;;;-0.40;99.90;;;;;;5091199;28;20301;-69
2022/04/01 06:58:16;;;;;;;9.13;4.87;;;-0.40;99.90;;;;;;5091041;28;20648;-69
2022/04/01 07:00:43;;;;;;;7.70;4.27;;;-0.40;99.90;;;;;;5091558;28;20201;-69
2022/04/01 07:03:10;;;;;;;9.90;4.00;;;-0.40;99.90;;;;;;5091562;28;20198;-69
2022/04/01 07:05:38;;;;;;;12.20;5.57;;;-0.40;99.90;;;;;;5091495;28;20574;-69
2022/04/01 07:08:07;;;;;;;9.77;4.87;;;-0.40;99.90;;;;;;5091002;28;20201;-69
2022/04/01 07:10:34;;;;;;;6.63;4.00;;;-0.40;99.90;;;;;;5091217;28;20676;-69
2022/04/01 07:13:01;;;;;;;7.50;4.23;;;-0.40;99.90;;;;;;5091157;28;20217;-69
2022/04/01 07:15:28;;;;;;;9.73;5.00;;;-0.40;99.90;;;;;;5091135;28;20208;-69
2022/04/01 07:17:56;;;;;;;7.47;4.27;;;-0.40;99.90;;;;;;5086491;28;20292;-69
2022/04/01 07:20:22;;;;;;;5.83;3.90;;;-0.40;99.90;;;;;;5091633;28;20206;-69
2022/04/01 07:22:52;;;;;;;10.43;4.60;;;-0.40;99.90;;;;;;5091752;28;20197;-69
2022/04/01 07:25:22;;;;;;;11.63;4.77;;;-0.40;99.90;;;;;;5091172;28;20216;-69
2022/04/01 07:27:49;;;;;;;7.17;4.10;;;-0.40;99.90;;;;;;5090745;28;20201;-69
2022/04/01 07:30:16;;;;;;;8.60;4.60;;;-0.40;99.90;;;;;;5091678;28;20214;-69
2022/04/01 07:32:43;;;;;;;7.73;4.67;;;-0.30;99.90;;;;;;5090710;28;20227;-69
2022/04/01 07:35:12;;;;;;;7.90;4.57;;;-0.30;99.90;;;;;;5093244;28;20220;-69
2022/04/01 07:37:39;;;;;;;13.43;4.90;;;-0.30;99.90;;;;;;5095309;28;20202;-69
2022/04/01 07:40:07;;;;;;;7.83;4.50;;;-0.20;99.90;;;;;;5094528;28;20580;-69
2022/04/01 07:42:38;;;;;;;11.83;5.57;;;-0.20;99.90;;;;;;5094756;28;20209;-69
2022/04/01 07:45:05;;;;;;;12.87;5.77;;;-0.20;99.90;;;;;;5093916;28;20193;-69
2022/04/01 07:47:33;;;;;;;11.23;5.30;;;-0.10;99.90;;;;;;5094915;28;20326;-69
2022/04/01 07:50:01;;;;;;;9.30;4.43;;;-0.10;99.90;;;;;;5094384;28;20205;-69
2022/04/01 07:52:29;;;;;;;13.43;6.43;;;-0.10;99.90;;;;;;5094756;28;20224;-69
2022/04/01 07:54:57;;;;;;;14.93;6.80;;;-0.10;99.90;;;;;;5095324;28;20293;-69
2022/04/01 07:57:24;;;;;;;15.47;6.40;;;0.00;99.90;;;;;;5094778;28;20240;-69
2022/04/01 07:59:52;;;;;;;8.43;4.10;;;0.00;99.90;;;;;;5094267;28;20209;-69
2022/04/01 08:02:19;;;;;;;10.00;5.33;;;0.00;99.90;;;;;;5094643;28;20200;-69
2022/04/01 08:04:46;;;;;;;8.43;5.07;;;0.10;99.90;;;;;;5094376;28;20227;-69
2022/04/01 08:07:13;;;;;;;9.60;5.30;;;0.10;99.90;;;;;;5094446;28;20194;-69
2022/04/01 08:09:40;;;;;;;11.73;5.57;;;0.10;99.90;;;;;;5093981;28;20208;-69
2022/04/01 08:12:08;;;;;;;12.10;5.57;;;0.20;99.90;;;;;;5094274;28;20261;-69
2022/04/01 08:14:36;;;;;;;10.40;4.83;;;0.20;99.90;;;;;;5094440;28;20247;-69
2022/04/01 08:17:06;;;;;;;12.57;5.73;;;0.30;99.90;;;;;;5094497;28;20194;-69
2022/04/01 08:19:33;;;;;;;11.80;5.70;;;0.40;99.90;;;;;;5093528;28;20255;-69
2022/04/01 08:22:00;;;;;;;11.57;5.03;;;0.50;1.00;;;;;;5094368;28;20198;-69
2022/04/01 08:24:26;;;;;;;12.37;4.77;;;0.60;1.00;;;;;;5094545;28;20537;-69
2022/04/01 08:26:55;;;;;;;9.10;4.40;;;0.70;3.50;;;;;;5094510;28;20596;-69
2022/04/01 08:29:22;;;;;;;7.73;4.77;;;0.80;1.00;;;;;;5093659;28;20289;-69
2022/04/01 08:31:49;;;;;;;8.83;4.57;;;0.90;99.90;;;;;;5094170;28;20559;-69
2022/04/01 08:34:17;;;;;;;8.33;4.07;;;1.00;99.90;;;;;;5093528;28;20197;-69
2022/04/01 08:36:44;;;;;;;7.23;4.60;;;1.00;1.00;;;;;;5093939;28;20201;-69
2022/04/01 08:39:11;;;;;;;8.03;4.57;;;1.10;1.00;;;;;;5093586;28;20661;-69
2022/04/01 08:41:38;;;;;;;7.03;4.57;;;1.20;99.90;;;;;;5093599;28;20208;-69
2022/04/01 08:44:05;;;;;;;9.83;5.03;;;1.20;1.00;;;;;;5093823;28;20687;-69
2022/04/01 08:46:33;;;;;;;9.43;5.17;;;1.40;1.00;;;;;;5092905;28;20674;-69
2022/04/01 08:48:59;;;;;;;11.00;4.90;;;1.50;1.00;;;;;;5092951;28;20293;-69
2022/04/01 08:51:29;;;;;;;6.80;3.97;;;1.40;1.00;;;;;;5093692;28;20212;-69
2022/04/01 08:53:56;;;;;;;9.87;4.67;;;1.60;99.90;;;;;;5089497;28;20749;-68
2022/04/01 08:56:23;;;;;;;10.83;4.90;;;1.70;65.30;;;;;;5093597;28;20202;-68
2022/04/01 08:58:50;;;;;;;8.77;5.00;;;1.70;1.00;;;;;;5093046;28;20660;-68
2022/04/01 09:01:17;;;;;;;10.07;4.90;;;1.80;99.90;;;;;;5093481;28;20232;-68
2022/04/01 09:03:45;;;;;;;8.93;4.57;;;1.80;1.00;;;;;;5091696;28;20205;-68
2022/04/01 09:06:12;;;;;;;8.80;4.73;;;1.90;99.90;;;;;;5089432;28;20687;-68
2022/04/01 09:08:42;;;;;;;7.33;4.40;;;2.00;99.90;;;;;;5091260;28;20680;-68
2022/04/01 09:11:12;;;;;;;8.80;4.70;;;2.00;99.90;;;;;;5090285;28;20197;-69
2022/04/01 09:13:49;;;;;;;6.73;4.43;;;2.00;99.90;;;;;;5091430;28;20229;-68
2022/04/01 09:16:27;;;;;;;8.00;4.43;;;1.90;1.00;;;;;;5092666;28;20552;-71
2022/04/01 09:18:55;;;;;;;8.57;4.60;;;2.00;1.00;;;;;;5092667;28;20201;-72
2022/04/01 09:21:27;;;;;;;8.70;4.57;;;2.00;99.90;;;;;;5093181;28;20728;-72
2022/04/01 09:23:55;;;;;;;11.33;4.57;;;2.10;1.00;;;;;;5090360;28;20193;-72
2022/04/01 09:26:29;;;;;;;8.77;4.23;;;2.10;99.90;;;;;;5092931;28;20694;-73
2022/04/01 09:28:56;;;;;;;7.13;3.73;;;2.10;1.00;;;;;;5091339;28;20621;-72
2022/04/01 09:31:25;;;;;;;9.57;4.20;;;2.10;99.90;;;;;;5092989;28;20202;-72
2022/04/01 09:33:54;;;;;;;8.83;3.90;;;2.20;1.00;;;;;;5092894;28;20249;-72
2022/04/01 09:36:26;;;;;;;7.37;3.90;;;2.20;99.90;;;;;;5091197;28;20201;-73
2022/04/01 09:38:59;;;;;;;6.83;4.17;;;2.30;1.00;;;;;;5092487;28;20262;-73
2022/04/01 09:41:35;;;;;;;9.37;4.03;;;2.30;1.00;;;;;;5092968;28;20205;-73
2022/04/01 09:44:06;;;;;;;9.73;4.43;;;2.30;1.00;;;;;;5092748;28;20193;-73
2022/04/01 09:46:34;;;;;;;6.60;3.90;;;2.40;99.90;;;;;;5092346;28;20202;-73
2022/04/01 09:49:01;;;;;;;6.90;3.47;;;2.40;1.00;;;;;;5092130;28;20212;-72
2022/04/01 09:51:32;;;;;;;5.13;2.90;;;2.50;99.90;;;;;;5092250;28;20248;-72
2022/04/01 09:54:03;;;;;;;4.73;2.83;;;2.50;1.00;;;;;;5092608;28;20221;-73
2022/04/01 09:56:37;;;;;;;6.27;3.60;;;2.50;1.00;;;;;;5092399;28;20197;-73
2022/04/01 09:59:05;;;;;;;5.83;3.63;;;2.60;99.90;;;;;;5091554;28;20204;-73
2022/04/01 10:01:33;;;;;;;5.97;3.17;;;2.60;1.00;;;;;;5092158;28;20206;-72
2022/04/01 10:04:00;;;;;;;4.70;2.57;;;2.60;99.90;;;;;;5092271;28;20194;-72
2022/04/01 10:06:28;;;;;;;7.83;3.07;;;2.70;99.90;;;;;;5088698;28;20570;-73
2022/04/01 10:08:56;;;;;;;4.57;2.90;;;2.70;1.00;;;;;;5090531;28;20197;-73
2022/04/01 10:11:25;;;;;;;5.00;2.77;;;2.70;1.00;;;;;;5091982;28;20201;-73
2022/04/01 10:13:53;;;;;;;4.57;2.90;;;2.80;1.00;;;;;;5092053;28;20271;-73
2022/04/01 10:16:21;;;;;;;5.70;2.87;;;2.80;99.90;;;;;;5090279;28;20202;-72
2022/04/01 10:18:49;;;;;;;4.30;2.80;;;2.90;1.00;;;;;;5091453;28;20227;-72
2022/04/01 10:21:19;;;;;;;7.27;3.23;;;2.90;1.00;;;;;;5092283;28;20589;-72
2022/04/01 10:23:54;;;;;;;7.53;3.57;;;2.90;1.00;;;;;;5091909;28;20202;-73
2022/04/01 10:26:29;;;;;;;7.77;3.30;;;3.00;99.90;;;;;;5091703;28;20205;-72
2022/04/01 10:28:56;;;;;;;3.37;2.33;;;3.00;99.90;;;;;;5089918;28;20648;-72
2022/04/01 10:31:25;;;;;;;3.77;2.50;;;3.00;1.00;;;;;;5091994;28;20304;-73
2022/04/01 10:33:52;;;;;;;3.37;2.60;;;3.10;99.90;;;;;;5091639;28;20223;-72
2022/04/01 10:36:31;;;;;;;5.57;3.10;;;3.20;99.90;;;;;;5092142;28;20286;-73
2022/04/01 10:39:01;;;;;;;6.43;3.00;;;3.20;1.00;;;;;;5086915;28;20227;-72
2022/04/01 10:41:30;;;;;;;2.73;1.93;;;3.30;99.90;;;;;;5091399;28;20202;-72
2022/04/01 10:43:56;;;;;;;2.80;2.17;;;3.30;99.90;;;;;;5085299;28;20205;-73
2022/04/01 10:46:24;;;;;;;5.70;2.60;;;3.30;1.00;;;;;;5092067;28;20215;-72
2022/04/01 10:52:05;;;;;;;2.27;1.80;;;3.50;99.90;;;;;;5089931;28;20222;-72
2022/04/01 10:54:43;;;;;;;4.67;2.43;;;3.50;1.00;;;;;;5091415;28;20231;-72
2022/04/01 10:57:14;;;;;;;3.63;2.60;;;3.50;1.00;;;;;;5086132;28;20322;-72
2022/04/01 10:59:42;;;;;;;2.77;2.03;;;3.60;1.00;;;;;;5090875;28;20208;-72
2022/04/01 11:02:11;;;;;;;4.77;2.30;;;3.60;1.00;;;;;;5091529;28;20208;-73
2022/04/01 11:04:39;;;;;;;2.60;1.77;;;3.60;1.00;;;;;;5091153;28;20237;-73
2022/04/01 11:07:09;;;;;;;3.73;2.03;;;3.60;1.00;;;;;;5091583;28;20663;-73
2022/04/01 11:09:45;;;;;;;5.37;2.70;;;3.70;1.00;;;;;;5090712;28;20595;-73
2022/04/01 11:12:29;;;;;;;3.90;2.33;;;3.70;42.40;;;;;;5090795;28;20615;-72
2022/04/01 11:15:11;;;;;;;4.67;1.70;;;3.80;99.90;;;;;;5091114;28;20193;-73
2022/04/01 11:18:01;;;;;;;2.83;1.60;;;3.70;1.00;;;;;;5089625;28;20732;-73
2022/04/01 11:20:29;;;;;;;4.03;2.40;;;3.80;99.90;;;;;;5090814;28;20202;-73
2022/04/01 11:23:04;;;;;;;4.33;2.60;;;3.80;99.90;;;;;;5090903;28;20263;-73
2022/04/01 11:26:01;;;;;;;3.90;2.03;;;3.80;1.00;;;;;;5090359;28;20212;-73
2022/04/01 11:28:38;;;;;;;4.83;2.50;;;3.90;1.00;;;;;;5090314;28;20628;-73
2022/04/01 11:31:15;;;;;;;5.77;2.60;;;3.90;1.00;;;;;;5089700;28;20207;-72
2022/04/01 11:34:00;;;;;;;4.70;2.00;;;3.90;1.00;;;;;;5089313;28;20219;-73
2022/04/01 11:36:27;;;;;;;4.17;1.93;;;3.90;1.00;;;;;;5091376;28;20560;-73
2022/04/01 11:38:54;;;;;;;2.70;2.17;;;3.90;1.00;;;;;;5090962;28;20240;-73
2022/04/01 11:41:23;;;;;;;5.00;2.80;;;4.00;99.90;;;;;;5090991;28;20229;-73
2022/04/01 11:43:52;;;;;;;4.67;2.80;;;4.00;1.00;;;;;;5091024;28;20201;-73
2022/04/01 11:46:19;;;;;;;3.50;2.50;;;4.00;99.90;;;;;;5087830;28;20648;-73
2022/04/01 11:48:47;;;;;;;5.30;2.67;;;4.00;99.90;;;;;;5090459;28;20206;-73
2022/04/01 11:51:16;;;;;;;2.83;1.47;;;4.10;99.90;;;;;;5089070;28;20229;-73
2022/04/01 11:53:47;;;;;;;3.63;2.40;;;4.10;1.00;;;;;;5089234;28;20221;-73
2022/04/01 11:56:14;;;;;;;6.13;2.10;;;4.10;1.00;;;;;;5085801;28;20296;-73
2022/04/01 11:58:55;;;;;;;6.80;3.33;;;4.10;99.90;;;;;;5090447;28;20206;-73
2022/04/01 12:01:24;;;;;;;4.50;2.27;;;4.10;1.00;;;;;;5090981;28;20237;-73
2022/04/01 12:03:51;;;;;;;4.67;2.33;;;4.10;99.90;;;;;;5090802;28;20194;-73
2022/04/01 12:09:07;;;;;;;2.77;1.27;;;4.20;99.90;;;;;;5090303;28;20565;-73
2022/04/01 12:11:40;;;;;;;1.93;1.43;;;4.20;99.90;;;;;;5090543;28;20212;-73
2022/04/01 12:14:11;;;;;;;2.33;1.53;;;4.20;99.90;;;;;;5090828;28;20233;-73
2022/04/01 12:16:42;;;;;;;2.73;2.10;;;4.30;99.90;;;;;;5090368;28;20202;-73
2022/04/01 12:19:17;;;;;;;3.50;2.20;;;4.30;99.90;;;;;;5090303;28;20198;-73
2022/04/01 12:21:47;;;;;;;5.30;2.37;;;4.30;99.90;;;;;;5091898;28;20205;-73
2022/04/01 12:24:14;;;;;;;2.87;1.87;;;4.40;99.90;;;;;;5094668;28;20567;-73
2022/04/01 12:26:43;;;;;;;3.73;2.50;;;4.40;42.00;;;;;;5094181;28;20209;-73
2022/04/01 12:29:20;;;;;;;2.67;1.93;;;4.50;86.00;;;;;;5093737;28;20201;-73
2022/04/01 12:31:52;;;;;;;2.60;1.70;;;4.50;1.00;;;;;;5093942;28;20250;-74
2022/04/01 12:34:20;;;;;;;4.60;2.07;;;4.60;1.00;;;;;;5093757;28;20265;-73
2022/04/01 12:36:53;;;;;;;3.37;1.63;;;4.60;1.00;;;;;;5094203;28;20217;-73
2022/04/01 12:39:20;;;;;;;2.73;1.40;;;4.60;1.00;;;;;;5093476;28;20574;-73
2022/04/01 12:41:51;;;;;;;7.77;2.30;;;4.50;1.00;;;;;;5093829;28;20547;-73
2022/04/01 12:44:23;;;;;;;4.17;2.00;;;4.70;1.00;;;;;;5093783;28;20202;-73
2022/04/01 12:46:50;;;;;;;5.43;2.17;;;4.60;1.00;;;;;;5093831;28;20202;-73
2022/04/01 12:49:19;;;;;;;3.83;1.60;;;4.70;1.00;;;;;;5093350;28;20198;-73
2022/04/01 12:51:52;;;;;;;2.43;1.97;;;4.60;1.00;;;;;;5093947;28;20201;-70
2022/04/01 12:54:29;;;;;;;2.87;1.97;;;4.70;18.30;;;;;;5094182;28;20319;-70
2022/04/01 12:56:56;;;;;;;3.33;1.97;;;4.70;1.00;;;;;;5093630;28;20202;-70
2022/04/01 12:59:25;;;;;;;2.80;1.43;;;4.80;99.90;;;;;;5093503;28;20202;-70
2022/04/01 13:02:00;;;;;;;5.10;2.13;;;4.80;1.00;;;;;;5093732;28;20205;-70
2022/04/01 13:04:28;;;;;;;6.33;2.40;;;4.80;1.00;;;;;;5092751;28;20207;-70
2022/04/01 13:07:16;;;;;;;2.30;1.50;;;4.90;26.30;;;;;;5093646;28;20197;-70
2022/04/01 13:09:45;;;;;;;3.33;1.67;;;4.90;1.00;;;;;;5091890;28;20206;-70
2022/04/01 13:12:12;;;;;;;1.77;1.10;;;5.00;1.00;;;;;;5092945;28;20229;-70
2022/04/01 13:14:40;;;;;;;2.37;1.67;;;5.00;1.00;;;;;;5093084;28;20691;-70
2022/04/01 13:17:13;;;;;;;3.87;1.83;;;5.10;50.40;;;;;;5093998;28;20198;-70